createdAt,value
2022-12-31T00:00:28.039Z,112
2022-12-31T00:02:57.988Z,115
2022-12-31T00:05:28.101Z,107
2022-12-31T00:07:58.216Z,106
2022-12-31T00:10:28.839Z,116
2022-12-31T00:12:58.841Z,115
2022-12-31T00:15:29.033Z,111
2022-12-31T00:17:58.990Z,96
2022-12-31T00:20:29.366Z,88
2022-12-31T00:22:59.342Z,92
2022-12-31T00:25:29.598Z,98
2022-12-31T00:27:59.752Z,96
2022-12-31T00:30:30.232Z,93
2022-12-31T00:33:00.170Z,97
2022-12-31T00:35:30.359Z,98
2022-12-31T00:38:00.312Z,93
2022-12-31T00:40:30.471Z,94
2022-12-31T00:43:00.668Z,97
2022-12-31T00:45:30.885Z,94
2022-12-31T00:48:00.991Z,93
2022-12-31T00:50:30.899Z,94
2022-12-31T00:53:00.982Z,97
2022-12-31T00:55:30.853Z,92
2022-12-31T00:58:00.819Z,96
2022-12-31T01:00:30.860Z,88
2022-12-31T01:03:01.042Z,88
2022-12-31T01:05:31.091Z,93
2022-12-31T01:08:01.191Z,98
2022-12-31T01:10:31.425Z,98
2022-12-31T01:13:01.659Z,96
2022-12-31T01:15:31.895Z,99
2022-12-31T01:18:02.104Z,92
2022-12-31T01:20:32.194Z,98
2022-12-31T01:23:02.299Z,96
2022-12-31T01:25:32.448Z,94
2022-12-31T01:28:02.597Z,97
2022-12-31T01:30:32.534Z,103
2022-12-31T01:33:02.777Z,98
2022-12-31T01:35:32.931Z,102
2022-12-31T01:38:03.109Z,92
2022-12-31T01:40:33.208Z,103
2022-12-31T01:43:03.309Z,100
2022-12-31T01:45:33.437Z,101
2022-12-31T01:48:03.582Z,101
2022-12-31T01:50:33.535Z,99
2022-12-31T01:53:03.754Z,100
2022-12-31T01:55:33.847Z,101
2022-12-31T01:58:06.728Z,96
2022-12-31T02:00:37.113Z,92
2022-12-31T02:03:07.048Z,99
2022-12-31T02:05:37.133Z,95
2022-12-31T02:08:07.352Z,102
2022-12-31T02:10:37.513Z,86
2022-12-31T02:13:07.660Z,86
2022-12-31T02:15:37.869Z,93
2022-12-31T02:18:07.766Z,90
2022-12-31T02:20:37.933Z,85
2022-12-31T02:23:08.006Z,96
2022-12-31T02:25:38.129Z,92
2022-12-31T02:28:08.372Z,90
2022-12-31T02:30:38.620Z,91
2022-12-31T02:33:08.695Z,90
2022-12-31T02:35:38.815Z,92
2022-12-31T02:38:08.962Z,86
2022-12-31T02:40:39.229Z,88
2022-12-31T02:43:09.404Z,91
2022-12-31T02:45:39.552Z,84
2022-12-31T02:48:09.672Z,83
2022-12-31T02:50:39.760Z,84
2022-12-31T02:53:09.869Z,85
2022-12-31T02:55:39.956Z,82
2022-12-31T02:58:10.209Z,77
2022-12-31T03:00:40.285Z,84
2022-12-31T03:03:10.479Z,87
2022-12-31T03:05:40.611Z,84
2022-12-31T03:08:10.730Z,77
2022-12-31T03:10:40.835Z,76
2022-12-31T03:13:11.057Z,78
2022-12-31T03:15:41.054Z,71
2022-12-31T03:18:11.141Z,80
2022-12-31T03:20:41.387Z,78
2022-12-31T03:23:11.511Z,78
2022-12-31T03:25:41.742Z,78
2022-12-31T03:28:11.865Z,82
2022-12-31T03:30:41.990Z,74
2022-12-31T03:33:12.067Z,82
2022-12-31T03:35:42.127Z,77
2022-12-31T03:38:12.133Z,77
2022-12-31T03:40:42.183Z,79
2022-12-31T03:43:12.248Z,74
2022-12-31T03:45:42.520Z,71
2022-12-31T03:48:12.664Z,72
2022-12-31T03:50:42.692Z,75
2022-12-31T03:53:12.968Z,75
2022-12-31T03:55:43.032Z,71
2022-12-31T03:58:13.259Z,71
2022-12-31T04:00:43.517Z,76
2022-12-31T04:03:13.619Z,71
2022-12-31T04:05:43.907Z,73
2022-12-31T04:08:14.062Z,80
2022-12-31T04:10:44.165Z,87
2022-12-31T04:13:14.343Z,84
2022-12-31T04:15:44.574Z,82
2022-12-31T04:18:14.853Z,86
2022-12-31T04:20:44.952Z,76
2022-12-31T04:23:15.114Z,70
2022-12-31T04:25:45.363Z,68
2022-12-31T04:28:15.368Z,61
2022-12-31T04:30:45.539Z,60
2022-12-31T04:33:15.721Z,57
2022-12-31T04:35:45.952Z,63
2022-12-31T04:38:16.082Z,68
2022-12-31T04:40:46.343Z,72
2022-12-31T04:43:16.440Z,76
2022-12-31T04:45:46.695Z,72
2022-12-31T04:48:16.847Z,72
2022-12-31T04:50:46.955Z,78
2022-12-31T04:53:17.120Z,72
2022-12-31T04:55:47.298Z,74
2022-12-31T04:58:17.376Z,79
2022-12-31T05:00:47.704Z,82
2022-12-31T05:03:17.831Z,77
2022-12-31T05:05:47.899Z,76
2022-12-31T05:08:18.191Z,71
2022-12-31T05:10:48.261Z,74
2022-12-31T05:13:18.447Z,77
2022-12-31T05:15:48.667Z,76
2022-12-31T05:18:18.670Z,70
2022-12-31T05:20:48.772Z,72
2022-12-31T05:23:18.952Z,70
2022-12-31T05:25:49.010Z,80
2022-12-31T05:28:19.115Z,81
2022-12-31T05:30:49.319Z,67
2022-12-31T05:33:19.462Z,65
2022-12-31T05:35:49.642Z,72
2022-12-31T05:38:19.782Z,65
2022-12-31T05:40:49.869Z,68
2022-12-31T05:43:20.003Z,70
2022-12-31T05:45:50.237Z,74
2022-12-31T05:48:20.367Z,65
2022-12-31T05:50:50.611Z,64
2022-12-31T05:53:20.535Z,69
2022-12-31T05:55:50.827Z,68
2022-12-31T05:58:20.947Z,72
2022-12-31T06:00:51.131Z,76
2022-12-31T06:03:21.529Z,72
2022-12-31T06:05:51.449Z,72
2022-12-31T06:08:21.593Z,72
2022-12-31T06:10:51.756Z,71
2022-12-31T06:13:21.863Z,75
2022-12-31T06:15:52.046Z,78
2022-12-31T06:18:22.234Z,68
2022-12-31T06:20:52.449Z,69
2022-12-31T06:23:22.611Z,75
2022-12-31T06:25:52.732Z,80
2022-12-31T06:28:22.885Z,76
2022-12-31T06:30:53.201Z,86
2022-12-31T06:36:01.838Z,82
2022-12-31T06:38:31.917Z,76
2022-12-31T06:41:02.173Z,72
2022-12-31T06:43:32.334Z,76
2022-12-31T06:46:02.507Z,72
2022-12-31T06:48:32.423Z,78
2022-12-31T06:51:02.585Z,75
2022-12-31T06:53:32.862Z,76
2022-12-31T06:56:03.091Z,80
2022-12-31T06:58:33.347Z,83
2022-12-31T07:01:03.477Z,82
2022-12-31T07:03:33.655Z,87
2022-12-31T07:06:03.831Z,86
2022-12-31T07:08:33.895Z,85
2022-12-31T07:11:04.167Z,86
2022-12-31T07:13:34.451Z,83
2022-12-31T07:16:04.723Z,95
2022-12-31T07:18:34.989Z,100
2022-12-31T07:21:05.137Z,99
2022-12-31T07:23:35.398Z,129
2022-12-31T07:26:05.632Z,129
2022-12-31T07:28:36.003Z,128
2022-12-31T07:31:06.217Z,150
2022-12-31T07:33:36.405Z,146
2022-12-31T07:36:06.611Z,140
2022-12-31T07:38:36.804Z,118
2022-12-31T07:41:09.629Z,94
2022-12-31T07:43:37.159Z,105
2022-12-31T07:46:07.529Z,100
2022-12-31T07:48:37.419Z,92
2022-12-31T07:51:07.521Z,94
2022-12-31T07:53:37.766Z,99
2022-12-31T07:56:07.934Z,100
2022-12-31T07:58:38.156Z,103
2022-12-31T08:01:09.023Z,101
2022-12-31T08:03:39.104Z,98
2022-12-31T08:06:09.274Z,109
2022-12-31T08:08:39.463Z,108
2022-12-31T08:11:09.719Z,108
2022-12-31T08:13:39.915Z,112
2022-12-31T08:16:10.632Z,107
2022-12-31T08:18:40.597Z,122
2022-12-31T08:21:10.794Z,119
2022-12-31T08:23:41.377Z,120
2022-12-31T08:26:11.404Z,135
2022-12-31T08:28:42.120Z,149
2022-12-31T08:31:16.588Z,147
2022-12-31T08:33:48.883Z,147
2022-12-31T08:36:19.076Z,142
2022-12-31T08:38:48.861Z,130
2022-12-31T08:41:18.934Z,145
2022-12-31T08:43:49.044Z,140
2022-12-31T08:46:18.993Z,143
2022-12-31T08:48:49.282Z,143
2022-12-31T08:51:19.543Z,134
2022-12-31T08:53:49.801Z,144
2022-12-31T08:56:19.988Z,152
2022-12-31T08:58:50.587Z,138
2022-12-31T09:01:20.935Z,140
2022-12-31T09:03:51.638Z,131
2022-12-31T09:06:21.802Z,127
2022-12-31T09:08:51.923Z,124
2022-12-31T09:11:23.394Z,118
2022-12-31T09:13:52.178Z,120
2022-12-31T09:16:22.276Z,122
2022-12-31T09:18:52.393Z,120
2022-12-31T09:21:22.667Z,127
2022-12-31T09:23:52.767Z,136
2022-12-31T09:26:22.844Z,146
2022-12-31T09:28:53.152Z,153
2022-12-31T09:31:23.312Z,162
2022-12-31T09:33:54.147Z,174
2022-12-31T09:36:24.201Z,178
2022-12-31T09:38:55.083Z,202
2022-12-31T09:41:25.134Z,215
2022-12-31T09:43:59.167Z,200
2022-12-31T09:46:25.605Z,156
2022-12-31T09:48:55.864Z,88
2022-12-31T09:51:26.769Z,88
2022-12-31T09:53:57.060Z,97
2022-12-31T09:56:27.271Z,92
2022-12-31T09:58:57.353Z,108
2022-12-31T10:01:27.406Z,104
2022-12-31T10:04:00.564Z,116
2022-12-31T10:06:31.741Z,101
2022-12-31T10:09:02.707Z,112
2022-12-31T10:11:32.954Z,88
2022-12-31T10:14:03.245Z,100
2022-12-31T10:16:33.441Z,99
2022-12-31T10:19:03.515Z,84
2022-12-31T10:21:33.879Z,89
2022-12-31T10:24:04.050Z,78
2022-12-31T10:26:34.918Z,80
2022-12-31T10:29:05.177Z,85
2022-12-31T10:31:35.331Z,78
2022-12-31T10:34:06.145Z,83
2022-12-31T10:36:36.436Z,81
2022-12-31T10:39:12.771Z,81
2022-12-31T10:41:37.512Z,77
2022-12-31T10:44:08.445Z,69
2022-12-31T10:46:38.821Z,88
2022-12-31T10:49:18.251Z,84
2022-12-31T10:51:48.188Z,78
2022-12-31T10:54:18.784Z,72
2022-12-31T10:56:48.937Z,60
2022-12-31T10:59:19.954Z,61
2022-12-31T11:01:49.713Z,64
2022-12-31T11:04:19.611Z,64
2022-12-31T11:06:51.149Z,54
2022-12-31T11:09:21.742Z,48
2022-12-31T11:11:52.950Z,48
2022-12-31T11:14:22.813Z,42
2022-12-31T11:16:53.151Z,40
2022-12-31T11:19:23.352Z,40
2022-12-31T11:21:54.057Z,28
2022-12-31T11:24:24.180Z,28
2022-12-31T11:26:55.098Z,26
2022-12-31T11:29:25.331Z,36
2022-12-31T11:31:55.517Z,36
2022-12-31T11:34:25.873Z,36
2022-12-31T11:36:55.865Z,29
2022-12-31T11:39:30.893Z,47
2022-12-31T11:41:57.039Z,37
2022-12-31T11:44:27.202Z,33
2022-12-31T11:46:57.430Z,40
2022-12-31T11:49:27.770Z,56
2022-12-31T11:51:58.025Z,46
2022-12-31T11:54:28.290Z,54
2022-12-31T11:59:33.711Z,45
2022-12-31T12:02:03.943Z,35
2022-12-31T12:04:34.269Z,40
2022-12-31T12:07:05.167Z,33
2022-12-31T12:09:35.216Z,29
2022-12-31T12:12:05.347Z,35
2022-12-31T12:14:35.723Z,38
2022-12-31T12:17:06.063Z,42
2022-12-31T12:19:36.330Z,28
2022-12-31T12:22:07.239Z,30
2022-12-31T12:24:37.963Z,34
2022-12-31T12:27:08.269Z,32
2022-12-31T12:29:38.546Z,32
2022-12-31T12:32:08.689Z,24
2022-12-31T12:34:41.945Z,24
2022-12-31T12:37:09.317Z,26
2022-12-31T12:39:40.272Z,34
2022-12-31T12:42:11.234Z,30
2022-12-31T12:44:41.490Z,30
2022-12-31T12:47:12.393Z,36
2022-12-31T12:49:42.638Z,38
2022-12-31T12:52:13.365Z,40
2022-12-31T12:54:43.526Z,32
2022-12-31T12:57:14.271Z,24
2022-12-31T12:59:44.455Z,30
2022-12-31T13:02:15.500Z,32
2022-12-31T13:04:45.580Z,29
2022-12-31T13:07:16.499Z,33
2022-12-31T13:09:46.679Z,36
2022-12-31T13:12:16.839Z,28
2022-12-31T13:14:47.741Z,39
2022-12-31T13:17:17.939Z,38
2022-12-31T13:19:48.874Z,28
2022-12-31T13:22:18.954Z,31
2022-12-31T13:24:49.803Z,36
2022-12-31T13:27:23.979Z,32
2022-12-31T13:29:53.866Z,32
2022-12-31T13:32:24.542Z,28
2022-12-31T13:34:54.865Z,26
2022-12-31T13:37:25.225Z,32
2022-12-31T13:39:55.153Z,28
2022-12-31T13:42:25.444Z,26
2022-12-31T13:44:56.247Z,28
2022-12-31T13:47:26.395Z,24
2022-12-31T13:49:56.584Z,24
2022-12-31T13:52:26.883Z,32
2022-12-31T13:54:56.944Z,21
2022-12-31T13:57:27.201Z,27
2022-12-31T13:59:57.318Z,26
2022-12-31T14:02:28.435Z,26
2022-12-31T14:04:59.025Z,32
2022-12-31T14:07:35.508Z,28
2022-12-31T14:09:59.626Z,23
2022-12-31T14:12:30.534Z,22
2022-12-31T14:15:00.625Z,26
2022-12-31T14:17:30.833Z,24
2022-12-31T14:20:01.028Z,26
2022-12-31T14:22:31.340Z,28
2022-12-31T14:25:02.154Z,27
2022-12-31T14:27:32.466Z,24
2022-12-31T14:30:02.697Z,26
2022-12-31T14:32:32.963Z,34
2022-12-31T14:35:03.291Z,29
2022-12-31T14:37:33.583Z,36
2022-12-31T14:40:03.840Z,38
2022-12-31T14:42:33.934Z,36
2022-12-31T14:45:04.858Z,46
2022-12-31T14:47:35.005Z,44
2022-12-31T14:50:05.167Z,44
2022-12-31T14:52:35.415Z,46
2022-12-31T14:55:05.570Z,44
2022-12-31T14:57:54.715Z,46
2022-12-31T15:00:06.485Z,56
2022-12-31T15:02:37.109Z,66
2022-12-31T15:05:07.053Z,60
2022-12-31T15:07:37.203Z,56
2022-12-31T15:10:07.480Z,56
2022-12-31T15:12:38.266Z,50
2022-12-31T15:15:10.221Z,56
2022-12-31T15:17:40.436Z,56
2022-12-31T15:20:16.856Z,54
2022-12-31T15:22:41.273Z,55
2022-12-31T15:25:12.123Z,60
2022-12-31T15:27:42.358Z,56
2022-12-31T15:30:13.309Z,60
2022-12-31T15:32:43.392Z,73
2022-12-31T15:35:14.318Z,76
2022-12-31T15:37:44.506Z,84
2022-12-31T15:40:14.709Z,78
2022-12-31T15:42:49.639Z,66
2022-12-31T15:45:16.036Z,61
2022-12-31T15:47:46.142Z,70
2022-12-31T15:50:16.896Z,75
2022-12-31T15:52:50.024Z,84
2022-12-31T15:55:21.113Z,84
2022-12-31T15:57:51.357Z,93
2022-12-31T16:00:21.433Z,96
2022-12-31T16:02:51.418Z,89
2022-12-31T16:05:22.213Z,112
2022-12-31T16:07:52.957Z,122
2022-12-31T16:10:23.178Z,119
2022-12-31T16:12:54.127Z,120
2022-12-31T16:15:26.055Z,113
2022-12-31T16:17:56.799Z,119
2022-12-31T16:20:27.004Z,120
2022-12-31T16:22:57.203Z,121
2022-12-31T16:25:31.801Z,135
2022-12-31T16:27:57.748Z,126
2022-12-31T16:30:27.982Z,123
2022-12-31T16:32:58.011Z,133
2022-12-31T16:35:28.267Z,130
2022-12-31T16:37:58.494Z,125
2022-12-31T16:40:28.318Z,102
2022-12-31T16:42:58.298Z,103
2022-12-31T16:45:28.879Z,97
2022-12-31T16:47:58.906Z,103
2022-12-31T16:50:29.422Z,88
2022-12-31T16:52:59.444Z,88
2022-12-31T16:55:29.546Z,84
2022-12-31T16:57:59.684Z,87
2022-12-31T17:00:29.832Z,84
2022-12-31T17:03:00.111Z,84
2022-12-31T17:05:30.302Z,94
2022-12-31T17:08:00.626Z,93
2022-12-31T17:10:30.689Z,94
2022-12-31T17:15:31.021Z,93
2022-12-31T17:18:01.215Z,101
2022-12-31T17:20:31.371Z,114
2022-12-31T17:23:01.675Z,112
2022-12-31T17:25:31.710Z,107
2022-12-31T17:28:01.797Z,112
2022-12-31T17:30:32.021Z,96
2022-12-31T17:33:02.926Z,105
2022-12-31T17:35:33.131Z,128
2022-12-31T17:38:03.130Z,112
2022-12-31T17:43:03.425Z,108
2022-12-31T17:45:34.298Z,101
2022-12-31T17:48:04.358Z,99
2022-12-31T17:50:34.511Z,111
2022-12-31T17:53:04.596Z,116
2022-12-31T17:55:35.450Z,147
2022-12-31T17:58:05.600Z,164
2022-12-31T18:00:36.336Z,153
2022-12-31T18:03:07.269Z,143
2022-12-31T18:05:37.272Z,150
2022-12-31T18:08:08.314Z,149
2022-12-31T18:10:38.325Z,143
2022-12-31T18:13:09.097Z,135
2022-12-31T18:15:39.218Z,123
2022-12-31T18:18:09.404Z,141
2022-12-31T18:20:39.550Z,148
2022-12-31T18:23:09.781Z,147
2022-12-31T18:28:10.333Z,133
2022-12-31T18:30:40.409Z,137
2022-12-31T18:33:10.394Z,137
2022-12-31T18:36:07.523Z,140
2022-12-31T18:38:10.539Z,136
2022-12-31T18:40:41.201Z,126
2022-12-31T18:43:11.494Z,140
2022-12-31T18:45:42.286Z,130
2022-12-31T18:48:12.505Z,140
2022-12-31T18:50:42.796Z,133
2022-12-31T18:53:13.575Z,129
2022-12-31T18:55:43.732Z,114
2022-12-31T18:58:14.052Z,128
2022-12-31T19:00:44.265Z,124
2022-12-31T19:03:14.398Z,120
2022-12-31T19:05:44.421Z,135
2022-12-31T19:08:15.284Z,137
2022-12-31T19:10:45.472Z,134
2022-12-31T19:13:15.667Z,140
2022-12-31T19:15:45.891Z,138
2022-12-31T19:18:16.524Z,137
2022-12-31T19:20:47.233Z,144
2022-12-31T19:23:17.262Z,138
2022-12-31T19:25:47.088Z,154
2022-12-31T19:28:17.104Z,148
2022-12-31T19:30:47.199Z,158
2022-12-31T19:33:17.410Z,161
2022-12-31T19:35:48.266Z,176
2022-12-31T19:38:18.679Z,178
2022-12-31T19:40:48.542Z,132
2022-12-31T19:43:18.750Z,133
2022-12-31T19:45:49.021Z,122
2022-12-31T19:48:19.103Z,123
2022-12-31T19:50:49.253Z,142
2022-12-31T19:53:19.457Z,142
2022-12-31T19:55:49.743Z,170
2022-12-31T19:58:19.916Z,168
2022-12-31T20:00:55.813Z,236
2022-12-31T20:03:20.127Z,172
2022-12-31T20:05:50.374Z,174
2022-12-31T20:08:20.431Z,188
2022-12-31T20:10:50.537Z,195
2022-12-31T20:13:20.913Z,167
2022-12-31T20:15:50.923Z,152
2022-12-31T20:18:21.110Z,152
2022-12-31T20:20:55.709Z,156
2022-12-31T20:23:22.228Z,156
2022-12-31T20:25:52.447Z,159
2022-12-31T20:28:22.619Z,160
2022-12-31T20:30:52.849Z,149
2022-12-31T20:33:23.520Z,139
2022-12-31T20:35:53.309Z,156
2022-12-31T20:38:23.564Z,148
2022-12-31T20:40:53.720Z,133
2022-12-31T20:43:23.987Z,128
2022-12-31T20:45:54.137Z,130
2022-12-31T20:48:24.956Z,125
2022-12-31T20:50:55.755Z,129
2022-12-31T20:53:25.843Z,124
2022-12-31T20:55:56.068Z,111
2022-12-31T20:58:26.291Z,94
2022-12-31T21:00:56.568Z,92
2022-12-31T21:05:57.637Z,126
2022-12-31T21:08:32.728Z,129
2022-12-31T21:10:57.941Z,124
2022-12-31T21:13:28.625Z,142
2022-12-31T21:15:58.813Z,146
2022-12-31T21:18:28.993Z,143
2022-12-31T21:20:59.145Z,136
2022-12-31T21:23:29.202Z,151
2022-12-31T21:25:59.303Z,151
2022-12-31T21:28:30.188Z,136
2022-12-31T21:31:00.360Z,119
2022-12-31T21:33:30.543Z,129
2022-12-31T21:36:04.407Z,136
2022-12-31T21:38:31.502Z,165
2022-12-31T21:41:01.677Z,148
2022-12-31T21:43:31.954Z,146
2022-12-31T21:46:02.135Z,166
2022-12-31T21:48:32.936Z,166
2022-12-31T21:51:02.961Z,176
2022-12-31T21:53:36.818Z,166
2022-12-31T21:56:03.334Z,162
2022-12-31T21:58:33.542Z,149
2022-12-31T22:01:04.330Z,145
2022-12-31T22:03:34.507Z,117
2022-12-31T22:06:04.474Z,103
2022-12-31T22:08:34.609Z,106
2022-12-31T22:11:05.503Z,106
2022-12-31T22:13:35.629Z,101
2022-12-31T22:16:06.217Z,97
2022-12-31T22:18:35.998Z,99
2022-12-31T22:21:09.712Z,108
2022-12-31T22:23:36.933Z,102
2022-12-31T22:26:07.112Z,106
2022-12-31T22:28:38.921Z,109
2022-12-31T22:31:07.473Z,108
2022-12-31T22:33:37.683Z,104
2022-12-31T22:36:07.855Z,114
2022-12-31T22:38:38.008Z,128
2022-12-31T22:41:08.781Z,128
2022-12-31T22:43:38.923Z,125
2022-12-31T22:46:09.181Z,115
2022-12-31T22:48:39.300Z,119
2022-12-31T22:51:10.077Z,130
2022-12-31T22:53:40.209Z,141
2022-12-31T22:56:10.823Z,151
2022-12-31T22:58:40.947Z,139
2022-12-31T23:01:11.207Z,165
2022-12-31T23:03:41.823Z,141
2022-12-31T23:06:11.893Z,355
2022-12-31T23:08:42.034Z,563
2022-12-31T23:11:12.153Z,419
2022-12-31T23:13:47.753Z,300
2022-12-31T23:16:12.904Z,225
2022-12-31T23:18:43.074Z,553
2022-12-31T23:21:13.200Z,733
2022-12-31T23:23:43.344Z,473
2022-12-31T23:26:13.657Z,352
2022-12-31T23:28:44.446Z,248
2022-12-31T23:31:14.551Z,177
2022-12-31T23:33:45.380Z,176
2022-12-31T23:36:15.455Z,179
2022-12-31T23:38:45.975Z,166
2022-12-31T23:41:16.075Z,187
2022-12-31T23:43:46.229Z,146
2022-12-31T23:46:16.456Z,146
2022-12-31T23:48:46.744Z,141
2022-12-31T23:51:16.950Z,137
2022-12-31T23:53:47.688Z,140
2022-12-31T23:56:23.239Z,137
2022-12-31T23:58:47.956Z,152
